Air Navigation Services of Czech Republic
Airport: LKPD Updated:  25.05.2018 02:01:06  UTC
 METAR LKPD 25.05. 02:00 ...
METAR LKPD 250200Z 01006KT 9999 RA NSC 15/13 Q1019 RETSRA RMK BLU=
 TAF LKPD 24.05. 23:00 ...
TAF LKPD 242300Z 2500/2600 09006KT CAVOK      PROB30 TEMPO 2511/2516 09014G24KT 8000 SHRA SCT030TCU=